Portada
METAR-TAF:

METAR-TAF

Aeroports :

Honiara, Guadalcanal, Illes Salomó

latitud: 09-25S, longitud: 160-03E, altitud: 8 m

Observació

L'informe es va fer fa 24 minuts, a les 12:00 UTC
Vent 4 kt del Sud/Sud-Est
Temperatura 26°C
Humitat 94%
Pressió 1014 hPa
Visibilitat 10 km o més
Escasses núvols a una alçada de 1600 ft
Núvols disperses a una alçada de 2600 ft
Cel ennuvolat a una alçada de 30000 ft

METAR: AGGH 251200Z 16004KT 9999 FEW016 SCT026 BKN300 26/25 Q1014

Hora: 23:24 (12:24 UTC)

Pronòstic

L'informe es va fer fa 1 hora i 10 minuts, a les 11:14 UTC
Pronòstic vàlid del 25 a les 12 UTC al 26 a les 12 UTC
Vent 7 kt del Est/Sud-Est
Visibilitat: 1013 m
Núvols disperses a una alçada de 1600 ft

TAF: AGGH 251114Z 2512/2612 11007KT 9999 SCT016 T 26 25 24 27 Q 1014 1012 1011 1013

Observacions i pronòstics meteorològics de més de 4000 aeroports (METAR i TAF).

Les estacions disponibles són els punts grocs i vermells al mapa.

Posi el ratolí al punt desitjat per veure el nom de l'estació.

Feu clic per veure les observacions i els pronòstics meteorològics.

Per canviar el mapa: feu clic els botons verds amb una creu de color negre per apropar; al botó verd amb un guió per allunyar la imatge; o en les fletxes verdes per a mapes adjacents.


METAR-TAF: